Time;durP1;ratioP1;P1;durP2;ratioP2;P2;SDS_P1;SDS_P2;PMS_P1;PMS_P2;Temp;Humidity;BMP_temperature;BMP_pressure;BME280_temperature;BME280_humidity;BME280_pressure;Samples;Min_cycle;Max_cycle;Signal;HPM_P1;HPM_P2
2022/08/26 00:01:28;;;;;;;36.00;26.23;;;;;;;30.51;75.90;97885.22;4874825;29;20132;-73
2022/08/26 00:04:17;;;;;;;34.63;25.58;;;;;;;30.45;75.96;97884.72;4874416;29;20152;-73
2022/08/26 00:06:59;;;;;;;35.80;24.63;;;;;;;30.51;76.13;97878.88;4873989;29;20545;-74
2022/08/26 00:09:48;;;;;;;34.33;25.98;;;;;;;30.49;75.94;97882.00;4874116;29;20045;-73
2022/08/26 00:12:29;;;;;;;36.25;26.42;;;;;;;30.50;75.78;97878.09;4873180;29;20061;-74
2022/08/26 00:15:26;;;;;;;38.95;25.98;;;;;;;30.46;76.04;97888.31;4876613;28;20057;-74
2022/08/26 00:18:21;;;;;;;34.38;26.35;;;;;;;30.48;75.69;97888.75;4896101;29;20040;-74
2022/08/26 00:21:18;;;;;;;36.50;24.97;;;;;;;30.47;75.99;97892.66;4895022;29;20052;-74
2022/08/26 00:24:01;;;;;;;34.08;24.83;;;;;;;30.43;76.38;97891.78;4895569;29;20055;-74
2022/08/26 00:26:56;;;;;;;32.92;23.17;;;;;;;30.45;76.62;97895.78;4911755;29;20055;-74
2022/08/26 00:29:33;;;;;;;37.10;25.08;;;;;;;30.41;76.70;97892.16;4894885;29;20043;-72
2022/08/26 00:32:28;;;;;;;36.80;25.10;;;;;;;30.45;75.49;97895.00;4887082;29;20172;-73
2022/08/26 00:35:04;;;;;;;41.60;23.92;;;;;;;30.44;75.96;97887.88;4892689;29;20048;-73
2022/08/26 00:38:00;;;;;;;31.50;22.50;;;;;;;30.44;75.92;97893.41;4893099;29;20059;-73
2022/08/26 00:40:54;;;;;;;35.70;23.60;;;;;;;30.47;75.88;97895.44;4892931;29;20049;-73
2022/08/26 00:43:43;;;;;;;33.03;22.95;;;;;;;30.38;75.98;97900.38;4893903;29;20080;-73
2022/08/26 00:46:38;;;;;;;30.63;23.60;;;;;;;30.42;76.50;97904.03;4894838;29;20060;-76
2022/08/26 00:49:50;;;;;;;34.35;22.88;;;;;;;30.44;75.61;97912.78;4878837;29;20139;-73
2022/08/26 00:52:47;;;;;;;35.25;24.15;;;;;;;30.55;75.74;97910.22;4892630;29;20044;-73
2022/08/26 00:55:43;;;;;;;36.90;24.30;;;;;;;30.52;76.09;97903.44;4876165;29;20044;-73
2022/08/26 00:58:35;;;;;;;38.35;25.08;;;;;;;30.53;75.98;97913.34;4891999;29;20076;-73
2022/08/26 01:01:26;;;;;;;39.22;24.65;;;;;;;30.54;76.01;97919.69;4893516;29;20080;-73
2022/08/26 01:04:12;;;;;;;33.72;25.00;;;;;;;30.59;75.89;97925.75;4910945;29;20066;-73
2022/08/26 01:07:01;;;;;;;36.08;24.58;;;;;;;30.61;76.08;97920.63;4911111;29;20626;-73
2022/08/26 01:09:45;;;;;;;35.72;25.08;;;;;;;30.59;75.66;97927.69;4910547;29;20052;-73
2022/08/26 01:12:37;;;;;;;37.08;25.50;;;;;;;30.72;76.13;97937.44;4910786;29;20373;-73
2022/08/26 01:15:24;;;;;;;37.28;26.30;;;;;;;30.74;76.03;97939.84;4894611;29;20093;-73
2022/08/26 01:18:21;;;;;;;36.72;24.85;;;;;;;30.78;75.54;97946.25;4892298;28;20135;-72
2022/08/26 01:21:18;;;;;;;32.45;23.98;;;;;;;30.83;75.56;97948.72;4876665;29;20385;-73
2022/08/26 01:24:09;;;;;;;33.20;23.88;;;;;;;30.94;74.92;97952.53;4877483;29;20397;-74
2022/08/26 01:26:58;;;;;;;32.35;22.67;;;;;;;30.91;74.84;97961.56;4876944;29;20488;-73
2022/08/26 01:29:41;;;;;;;;;;;;;;;30.99;74.82;97965.25;4873351;29;20076;-73
2022/08/26 01:32:31;;;;;;;35.95;21.70;;;;;;;31.02;74.22;97970.88;4866069;29;19991;-73
2022/08/26 01:35:13;;;;;;;;;;;;;;;31.01;73.60;97977.59;4874203;29;20052;-72
2022/08/26 01:38:01;;;;;;;31.85;19.98;;;;;;;31.08;74.20;97979.69;4876456;29;19920;-73
2022/08/26 01:40:44;;;;;;;30.02;19.73;;;;;;;31.23;73.71;97977.97;4890754;29;20120;-73
2022/08/26 01:43:36;;;;;;;30.13;18.63;;;;;;;31.19;73.76;97977.13;4890960;29;20151;-73
2022/08/26 01:46:21;;;;;;;32.17;18.70;;;;;;;31.20;73.07;97987.84;4874590;29;20055;-73
2022/08/26 01:49:12;;;;;;;30.27;19.75;;;;;;;31.03;73.24;97989.13;4890743;29;20052;-74
2022/08/26 01:51:57;;;;;;;43.55;22.15;;;;;;;31.34;72.41;97995.59;4875092;29;20048;-73
2022/08/26 01:54:54;;;;;;;34.05;20.73;;;;;;;31.48;71.93;97992.28;4891380;29;20480;-73
2022/08/26 01:57:30;;;;;;;34.25;19.48;;;;;;;31.51;71.09;97999.88;4874372;29;20053;-74
2022/08/26 02:00:26;;;;;;;30.23;18.80;;;;;;;31.63;70.88;97993.34;4890814;29;20091;-73
2022/08/26 02:03:16;;;;;;;25.83;18.88;;;;;;;31.68;70.14;97993.03;4890335;29;20055;-73
2022/08/26 02:06:13;;;;;;;33.97;20.13;;;;;;;31.82;70.21;97997.19;4861265;29;20053;-73
2022/08/26 02:08:53;;;;;;;33.45;17.98;;;;;;;31.90;70.74;97991.38;4874084;29;20104;-73
2022/08/26 02:11:48;;;;;;;38.53;18.10;;;;;;;32.17;71.01;97992.16;4874286;29;20060;-73
2022/08/26 02:14:30;;;;;;;30.33;16.73;;;;;;;32.25;69.23;97992.28;4873415;29;20080;-73
2022/08/26 02:17:38;;;;;;;28.27;17.77;;;;;;;32.33;67.89;98000.34;4872415;29;20771;-74
2022/08/26 02:20:28;;;;;;;29.10;17.92;;;;;;;32.30;68.26;97989.97;4871117;29;20059;-74
2022/08/26 02:23:17;;;;;;;33.67;15.95;;;;;;;32.70;66.91;97990.50;4871388;29;20449;-73
2022/08/26 02:26:19;;;;;;;26.55;15.02;;;;;;;32.73;66.05;97984.97;4888234;29;20084;-73
2022/08/26 02:29:35;;;;;;;22.30;15.25;;;;;;;33.17;65.42;97986.22;4853539;29;20119;-73
2022/08/26 02:32:11;;;;;;;23.60;14.50;;;;;;;33.15;65.52;97991.38;4867186;29;20466;-73
2022/08/26 02:35:06;;;;;;;24.63;15.00;;;;;;;32.95;65.59;97994.34;4872641;29;20065;-74
2022/08/26 02:37:43;;;;;;;28.85;15.93;;;;;;;32.99;66.80;97991.59;4871472;29;20590;-74
2022/08/26 02:40:35;;;;;;;30.75;18.67;;;;;;;33.14;66.04;97979.47;4870882;29;20041;-73
2022/08/26 02:43:24;;;;;;;42.13;22.42;;;;;;;33.07;66.19;97986.91;4857275;29;20049;-74
2022/08/26 02:46:13;;;;;;;41.53;24.05;;;;;;;32.84;66.16;97992.63;4870966;29;20143;-73
2022/08/26 02:49:09;;;;;;;42.83;25.90;;;;;;;32.95;65.63;97996.31;4870939;29;20064;-73
2022/08/26 02:51:52;;;;;;;40.90;24.63;;;;;;;33.21;66.03;97997.41;4873225;29;20057;-73
2022/08/26 02:54:41;;;;;;;44.80;25.50;;;;;;;33.10;65.16;97995.31;4873966;29;20121;-74
2022/08/26 02:57:30;;;;;;;41.13;25.95;;;;;;;33.08;64.95;98000.44;4878041;29;20379;-74
2022/08/26 03:00:16;;;;;;;48.05;26.63;;;;;;;33.27;65.61;98005.03;4878570;29;20080;-73
2022/08/26 03:03:12;;;;;;;43.58;25.92;;;;;;;33.26;65.81;98013.75;4857715;29;20046;-74
2022/08/26 03:05:48;;;;;;;50.50;25.50;;;;;;;32.92;65.73;98011.78;4855754;29;20486;-74
2022/08/26 03:08:38;;;;;;;39.88;25.45;;;;;;;32.93;65.48;98009.81;4856200;29;20069;-74
2022/08/26 03:11:20;;;;;;;43.75;26.60;;;;;;;33.17;64.89;98016.81;4855493;29;20072;-73
2022/08/26 03:14:13;;;;;;;38.83;22.48;;;;;;;33.15;64.72;98014.44;4856500;29;20080;-73
2022/08/26 03:17:10;;;;;;;38.03;23.25;;;;;;;32.93;64.37;98016.16;4868192;28;20085;-73
2022/08/26 03:19:59;;;;;;;38.72;22.27;;;;;;;33.17;64.82;98025.16;4889841;29;20129;-74
2022/08/26 03:22:42;;;;;;;41.33;22.73;;;;;;;33.14;64.83;98023.94;4893835;29;20059;-73
2022/08/26 03:25:38;;;;;;;28.55;17.60;;;;;;;33.36;63.83;98029.72;4893575;29;20140;-74
2022/08/26 03:28:14;;;;;;;27.95;15.85;;;;;;;33.23;64.36;98031.19;4877357;29;20064;-74
2022/08/26 03:31:08;;;;;;;25.00;14.27;;;;;;;33.26;62.88;98031.22;4894266;29;20062;-75
2022/08/26 03:33:43;;;;;;;17.92;12.27;;;;;;;33.35;63.26;98039.25;4889356;29;20060;-74
2022/08/26 03:36:35;;;;;;;24.02;14.50;;;;;;;33.29;63.47;98038.00;4863403;29;20757;-74
2022/08/26 03:39:18;;;;;;;28.92;14.40;;;;;;;33.59;63.03;98043.44;4893313;29;20060;-73
2022/08/26 03:42:11;;;;;;;23.55;13.15;;;;;;;33.40;62.47;98035.31;4892904;29;20048;-74
2022/08/26 03:44:53;;;;;;;20.83;9.75;;;;;;;33.25;62.29;98037.97;4873976;29;20604;-75
2022/08/26 03:47:49;;;;;;;14.80;10.38;;;;;;;33.44;62.39;98033.38;4874141;29;20053;-74
2022/08/26 03:50:26;;;;;;;21.45;11.57;;;;;;;33.49;63.46;98036.59;4875581;29;20059;-74
2022/08/26 03:53:22;;;;;;;26.58;14.20;;;;;;;33.61;63.13;98043.88;4892710;29;20552;-74
2022/08/26 03:55:58;;;;;;;22.40;14.20;;;;;;;33.43;62.21;98037.34;4892914;29;20044;-74
2022/08/26 03:58:46;;;;;;;22.45;14.35;;;;;;;33.34;63.80;98041.25;4872791;29;20052;-74
2022/08/26 04:01:30;;;;;;;21.65;13.35;;;;;;;33.32;62.21;98048.34;4873238;29;20060;-74
2022/08/26 04:04:19;;;;;;;16.55;11.35;;;;;;;33.36;64.27;98049.19;4872999;29;20631;-75
2022/08/26 04:07:05;;;;;;;15.70;10.88;;;;;;;33.15;62.54;98049.78;4872288;29;20123;-74
2022/08/26 04:10:02;;;;;;;20.95;10.07;;;;;;;33.24;63.63;98052.25;4873272;29;20755;-75
2022/08/26 04:12:38;;;;;;;14.43;9.77;;;;;;;33.09;63.72;98062.38;4873518;29;20048;-74
2022/08/26 04:15:27;;;;;;;91.28;13.57;;;;;;;33.05;64.07;98061.56;4874217;29;20072;-74
2022/08/26 04:18:16;;;;;;;15.83;11.30;;;;;;;33.37;63.48;98058.34;4863230;28;20056;-74
2022/08/26 04:21:13;;;;;;;14.95;10.40;;;;;;;33.40;64.14;98063.13;4858502;29;20292;-75
2022/08/26 04:24:01;;;;;;;21.88;12.88;;;;;;;33.23;62.89;98056.19;4893030;29;20402;-74
2022/08/26 04:26:43;;;;;;;19.13;13.98;;;;;;;33.15;63.45;98058.09;4909435;29;20080;-73
2022/08/26 04:29:32;;;;;;;22.35;15.38;;;;;;;33.24;63.93;98061.38;4902819;29;20079;-74
2022/08/26 04:32:15;;;;;;;21.35;14.23;;;;;;;33.88;64.01;98068.75;4892897;29;20048;-75
2022/08/26 04:35:04;;;;;;;23.30;15.48;;;;;;;34.24;62.91;98069.88;4893157;29;20045;-73
2022/08/26 04:37:47;;;;;;;22.33;15.02;;;;;;;34.51;61.68;98073.19;4894265;29;20108;-72
2022/08/26 04:40:37;;;;;;;22.13;15.50;;;;;;;34.37;60.41;98075.91;4892876;29;20409;-72
2022/08/26 04:43:29;;;;;;;23.25;16.38;;;;;;;34.56;58.26;98074.81;4891756;29;20056;-72
2022/08/26 04:46:23;;;;;;;24.13;16.08;;;;;;;34.97;59.16;98082.19;4893082;29;20041;-74
2022/08/26 04:49:13;;;;;;;20.70;15.07;;;;;;;34.92;58.65;98085.38;4892303;29;20427;-72
2022/08/26 04:51:55;;;;;;;23.88;15.68;;;;;;;35.40;57.28;98087.91;4877440;29;20050;-73
2022/08/26 04:54:50;;;;;;;21.20;14.80;;;;;;;35.39;58.20;98080.72;4892335;29;20144;-72
2022/08/26 04:57:27;;;;;;;23.60;15.27;;;;;;;35.57;56.04;98081.56;4892389;29;20524;-73
2022/08/26 05:00:23;;;;;;;19.10;14.23;;;;;;;35.61;56.18;98087.16;4892503;29;20484;-71
2022/08/26 05:03:00;;;;;;;23.48;15.00;;;;;;;35.65;54.47;98082.38;4878886;29;20291;-73
2022/08/26 05:05:57;;;;;;;22.00;14.88;;;;;;;35.76;55.28;98085.22;4897058;29;20075;-73
2022/08/26 05:08:33;;;;;;;17.60;14.93;;;;;;;36.12;55.05;98082.41;4892419;29;20068;-72
2022/08/26 05:11:28;;;;;;;19.48;11.52;;;;;;;36.60;51.77;98079.16;4872967;29;20049;-71
2022/08/26 05:14:04;;;;;;;15.52;11.85;;;;;;;36.90;50.56;98089.03;4876405;29;20060;-71
2022/08/26 05:16:53;;;;;;;17.58;12.35;;;;;;;37.07;52.36;98079.78;4892188;29;20524;-72
2022/08/26 05:19:36;;;;;;;19.40;12.52;;;;;;;36.58;52.91;98075.94;4895085;28;20059;-72
2022/08/26 05:22:31;;;;;;;24.23;13.13;;;;;;;36.47;51.90;98077.97;4895538;28;20047;-72
2022/08/26 05:25:20;;;;;;;20.67;13.90;;;;;;;37.22;51.04;98067.34;4910178;29;20616;-71
2022/08/26 05:28:24;;;;;;;20.88;16.23;;;;;;;37.46;51.10;98081.56;4910515;29;20131;-70
2022/08/26 05:31:16;;;;;;;26.67;19.25;;;;;;;37.01;50.02;98075.78;4910584;29;20055;-72
2022/08/26 05:34:00;;;;;;;31.55;22.05;;;;;;;36.97;49.36;98083.41;4910383;29;20076;-71
2022/08/26 05:36:49;;;;;;;28.02;20.60;;;;;;;37.10;50.39;98072.56;4891249;29;20100;-71
2022/08/26 05:39:38;;;;;;;25.13;18.48;;;;;;;37.32;48.68;98068.47;4891255;29;20425;-72
2022/08/26 05:42:23;;;;;;;25.48;18.10;;;;;;;37.71;47.88;98061.03;4891159;29;20056;-72
2022/08/26 05:45:20;;;;;;;26.10;17.58;;;;;;;37.20;50.87;98063.34;4891289;29;20045;-72
2022/08/26 05:47:56;;;;;;;22.55;17.45;;;;;;;37.51;50.02;98067.16;4876361;29;20135;-72
2022/08/26 05:50:49;;;;;;;22.30;15.43;;;;;;;37.75;48.80;98050.59;4891605;29;20111;-72
2022/08/26 05:53:31;;;;;;;23.77;17.33;;;;;;;36.94;53.07;98050.69;4891020;29;20132;-72
2022/08/26 05:56:30;;;;;;;20.52;14.73;;;;;;;37.39;51.38;98050.81;4890986;29;20060;-74
2022/08/26 05:59:11;;;;;;;17.75;13.95;;;;;;;37.23;50.42;98048.53;4891163;29;20060;-73
2022/08/26 06:02:06;;;;;;;15.95;11.73;;;;;;;37.31;50.56;98047.28;4890718;29;20052;-73
2022/08/26 06:04:48;;;;;;;19.52;11.70;;;;;;;37.67;48.46;98037.88;4889998;29;20489;-73
2022/08/26 06:10:58;;;;;;;10.10;8.75;;;;;;;37.90;47.85;98043.66;4890492;29;20108;-72
2022/08/26 06:13:42;;;;;;;10.85;9.50;;;;;;;37.62;45.76;98041.88;4890682;29;20104;-73
2022/08/26 06:16:44;;;;;;;14.75;9.90;;;;;;;37.47;47.55;98041.16;4890935;29;20047;-73
2022/08/26 06:19:20;;;;;;;10.68;9.20;;;;;;;37.76;50.46;98041.00;4906417;29;20131;-74
2022/08/26 06:25:40;;;;;;;12.32;7.47;;;;;;;37.00;45.00;98035.84;4890150;28;20048;-74
2022/08/26 06:28:29;;;;;;;12.90;6.88;;;;;;;37.25;46.64;98034.16;4890629;29;20049;-71
2022/08/26 06:31:19;;;;;;;12.05;7.43;;;;;;;36.74;48.20;98039.19;4908497;29;20048;-72
2022/08/26 06:34:09;;;;;;;14.70;7.57;;;;;;;36.24;51.69;98031.72;4909112;29;20051;-71
2022/08/26 06:36:52;;;;;;;10.25;7.07;;;;;;;36.79;50.96;98035.97;4909650;29;20067;-72
2022/08/26 06:39:48;;;;;;;12.80;5.97;;;;;;;36.59;49.57;98030.00;4909262;29;20048;-73
2022/08/26 06:42:25;;;;;;;10.52;6.70;;;;;;;36.57;49.45;98029.63;4908971;29;20488;-72
2022/08/26 06:45:14;;;;;;;11.00;7.85;;;;;;;36.98;51.03;98026.28;4894971;29;20397;-72
2022/08/26 06:47:56;;;;;;;21.52;8.35;;;;;;;36.71;50.42;98024.03;4909739;29;20060;-73
2022/08/26 06:50:46;;;;;;;11.27;6.55;;;;;;;36.55;50.86;98027.22;4909453;29;20048;-73
2022/08/26 06:53:29;;;;;;;10.48;5.20;;;;;;;36.59;51.92;98030.00;4909142;29;20052;-72
2022/08/26 06:56:24;;;;;;;13.55;5.47;;;;;;;35.83;52.87;98026.59;4909308;29;20048;-73
2022/08/26 06:59:07;;;;;;;13.20;5.38;;;;;;;35.69;53.02;98021.78;4897795;29;20055;-74
2022/08/26 07:01:57;;;;;;;6.68;5.13;;;;;;;35.71;53.79;98024.19;4885510;29;20112;-74
2022/08/26 07:04:48;;;;;;;9.07;4.90;;;;;;;35.85;52.97;98022.19;4890077;29;20140;-73
2022/08/26 07:07:43;;;;;;;7.47;4.50;;;;;;;35.74;51.04;98020.59;4904333;29;20051;-73
2022/08/26 07:10:19;;;;;;;11.60;4.60;;;;;;;35.73;56.06;98016.22;4910134;29;20059;-74
2022/08/26 07:13:15;;;;;;;9.98;4.60;;;;;;;35.55;52.89;98018.97;4913213;29;20469;-73
2022/08/26 07:16:10;;;;;;;14.27;5.38;;;;;;;35.61;52.93;98011.81;4908876;29;20096;-73
2022/08/26 07:19:06;;;;;;;10.95;4.35;;;;;;;35.46;52.96;98002.63;4908809;29;20056;-73
2022/08/26 07:21:45;;;;;;;11.93;4.95;;;;;;;35.51;53.32;97996.66;4878163;29;20045;-74
2022/08/26 07:24:43;;;;;;;10.88;4.55;;;;;;;35.84;53.30;97989.09;4891975;28;20040;-73
2022/08/26 07:27:19;;;;;;;13.48;4.60;;;;;;;36.02;54.44;97992.66;4889810;29;20052;-73
2022/08/26 07:30:15;;;;;;;13.10;4.70;;;;;;;36.53;51.59;97982.13;4890301;29;20100;-69
2022/08/26 07:32:51;;;;;;;9.77;4.45;;;;;;;36.41;53.11;97974.19;4873908;29;20057;-74
2022/08/26 07:35:41;;;;;;;10.73;5.82;;;;;;;37.03;51.65;97983.88;4890115;29;20116;-73
2022/08/26 07:38:23;;;;;;;12.05;4.80;;;;;;;36.96;51.09;97973.53;4874528;29;20068;-71
2022/08/26 07:41:16;;;;;;;6.95;4.30;;;;;;;36.87;51.44;97976.00;4889191;29;20076;-70
2022/08/26 07:44:06;;;;;;;13.95;4.10;;;;;;;36.76;52.05;97976.03;4892847;29;20045;-72
2022/08/26 07:47:00;;;;;;;7.15;4.10;;;;;;;36.65;51.37;97975.34;4893114;29;20140;-75
2022/08/26 07:49:44;;;;;;;9.20;4.30;;;;;;;36.90;50.90;97955.63;4892993;29;20052;-70
2022/08/26 07:52:42;;;;;;;10.60;4.43;;;;;;;36.60;51.02;97956.16;4867977;29;20606;-73
2022/08/26 07:55:21;;;;;;;10.10;5.13;;;;;;;37.13;53.99;97946.69;4892408;29;20044;-73
2022/08/26 07:58:17;;;;;;;10.95;4.10;;;;;;;36.92;50.81;97949.59;4903171;29;20413;-72
2022/08/26 08:00:53;;;;;;;6.65;3.92;;;;;;;36.99;50.91;97943.97;4912101;29;20059;-72
2022/08/26 08:03:50;;;;;;;10.48;4.70;;;;;;;36.91;50.12;97946.00;4911570;29;20055;-73
2022/08/26 08:06:27;;;;;;;6.90;4.18;;;;;;;37.00;49.15;97942.75;4895068;29;20050;-70
2022/08/26 08:09:16;;;;;;;8.82;3.88;;;;;;;36.90;49.84;97952.00;4908637;29;20086;-73
2022/08/26 08:12:05;;;;;;;9.48;3.85;;;;;;;36.48;51.43;97948.22;4895381;29;20566;-71
2022/08/26 08:14:53;;;;;;;6.57;4.00;;;;;;;36.76;51.65;97942.50;4893079;29;20063;-72
2022/08/26 08:17:43;;;;;;;8.82;4.07;;;;;;;36.89;53.03;97934.44;4892845;29;20464;-72
2022/08/26 08:20:26;;;;;;;7.70;3.95;;;;;;;36.65;52.51;97941.78;4893127;29;20056;-72
2022/08/26 08:23:16;;;;;;;9.93;4.82;;;;;;;36.64;51.01;97940.94;4891865;29;20048;-72
2022/08/26 08:26:16;;;;;;;9.88;4.25;;;;;;;36.71;52.22;97940.16;4892533;29;20441;-73
2022/08/26 08:29:12;;;;;;;8.90;3.92;;;;;;;36.49;52.68;97921.88;4894945;29;20719;-73
2022/08/26 08:31:47;;;;;;;6.38;3.78;;;;;;;36.49;53.17;97921.88;4892309;29;20112;-73
2022/08/26 08:34:45;;;;;;;7.43;4.72;;;;;;;36.74;51.29;97932.94;4892379;29;20128;-73
2022/08/26 08:37:21;;;;;;;12.40;4.25;;;;;;;36.44;51.02;97928.69;4890818;29;21512;-71
2022/08/26 08:40:17;;;;;;;9.23;4.15;;;;;;;36.57;50.77;97927.00;4892342;29;20076;-72
2022/08/26 08:43:22;;;;;;;9.07;3.83;;;;;;;36.22;51.94;97920.38;4891757;29;20052;-72
2022/08/26 08:46:23;;;;;;;9.38;3.70;;;;;;;36.12;53.20;97914.81;4898454;29;20052;-71
2022/08/26 08:49:02;;;;;;;6.45;3.20;;;;;;;36.24;51.51;97922.78;4911431;29;20048;-72
2022/08/26 08:51:54;;;;;;;12.25;3.50;;;;;;;36.62;49.81;97931.38;4910889;29;20072;-73
2022/08/26 08:54:38;;;;;;;21.55;15.38;;;;;;;35.24;55.76;97930.09;4910368;29;20048;-73
2022/08/26 08:57:36;;;;;;;18.30;14.55;;;;;;;34.20;58.68;97932.56;4891366;29;20063;-72
2022/08/26 09:00:23;;;;;;;20.23;12.80;;;;;;;34.40;57.96;97921.13;4891963;29;20550;-72
2022/08/26 09:03:29;;;;;;;22.90;12.88;;;;;;;33.36;59.79;97907.34;4872799;29;20045;-73
2022/08/26 09:06:19;;;;;;;22.13;9.98;;;;;;;33.30;59.80;97895.78;4878591;29;20080;-72
2022/08/26 09:09:16;;;;;;;8.88;8.00;;;;;;;32.87;59.64;97917.63;4892064;29;20091;-73
2022/08/26 09:12:07;;;;;;;14.38;7.80;;;;;;;32.64;60.40;97917.81;4891871;29;20131;-73
2022/08/26 09:15:18;;;;;;;13.35;6.28;;;;;;;33.09;59.26;97912.25;4892549;29;20049;-74
2022/08/26 09:18:35;;;;;;;11.18;5.80;;;;;;;32.68;59.24;97903.94;4876794;29;20117;-74
2022/08/26 09:21:22;;;;;;;10.02;5.82;;;;;;;33.12;58.65;97917.09;4893222;29;20147;-72
2022/08/26 09:24:12;;;;;;;12.75;6.13;;;;;;;33.20;60.04;97918.75;4891437;29;20076;-73
2022/08/26 09:27:05;;;;;;;13.43;7.15;;;;;;;33.27;61.04;97915.25;4890305;29;20156;-73
2022/08/26 09:30:05;;;;;;;19.35;9.15;;;;;;;33.46;58.69;97925.28;4890726;29;20052;-73
2022/08/26 09:33:10;;;;;;;17.02;8.82;;;;;;;33.70;57.64;97938.63;4890872;29;20048;-72
2022/08/26 09:36:36;;;;;;;12.90;8.23;;;;;;;33.37;60.08;97922.06;4891401;29;20424;-73
2022/08/26 09:39:27;;;;;;;12.00;8.38;;;;;;;33.27;61.05;97929.16;4887496;29;20456;-73
2022/08/26 09:42:26;;;;;;;14.95;8.95;;;;;;;31.80;64.31;97928.19;4890381;29;20116;-73
2022/08/26 09:45:11;;;;;;;16.63;8.35;;;;;;;32.51;66.44;97911.66;4890564;29;20500;-71
2022/08/26 09:48:02;;;;;;;15.38;9.52;;;;;;;32.84;68.92;97901.72;4872897;29;20048;-73
2022/08/26 09:50:57;;;;;;;14.93;9.35;;;;;;;32.40;69.08;97891.31;4872761;29;20136;-74
2022/08/26 09:54:00;;;;;;;13.88;8.13;;;;;;;32.15;69.94;97882.69;4882224;29;20048;-72
2022/08/26 09:56:45;;;;;;;10.70;8.75;;;;;;;31.35;71.84;97886.28;4891296;29;20041;-73
2022/08/26 09:59:37;;;;;;;14.30;9.27;;;;;;;31.91;72.54;97895.84;4874583;29;20048;-74
2022/08/26 10:02:30;;;;;;;14.25;9.25;;;;;;;31.82;71.86;97903.66;4858210;29;20120;-72
2022/08/26 10:05:24;;;;;;;14.82;9.95;;;;;;;31.39;72.36;97895.47;4890151;29;20444;-76
2022/08/26 10:08:37;;;;;;;14.63;9.85;;;;;;;31.97;72.11;97888.00;4893841;29;20049;-73
2022/08/26 10:11:39;;;;;;;10.23;8.68;;;;;;;31.78;69.69;97878.63;4885705;29;20060;-73
2022/08/26 10:14:47;;;;;;;13.20;10.15;;;;;;;31.95;71.64;97868.16;4890718;29;20124;-73
2022/08/26 10:17:35;;;;;;;13.05;9.40;;;;;;;32.17;70.67;97860.91;4889939;29;20833;-73
2022/08/26 10:20:42;;;;;;;14.65;8.27;;;;;;;31.98;69.25;97845.97;4890628;29;20064;-72
2022/08/26 10:23:25;;;;;;;11.35;8.15;;;;;;;32.36;70.17;97843.25;4871243;29;20147;-72
2022/08/26 10:26:27;;;;;;;12.95;8.40;;;;;;;32.10;68.29;97842.19;4893043;29;20824;-71
2022/08/26 10:29:22;;;;;;;9.77;7.55;;;;;;;32.49;67.05;97839.03;4898501;29;20064;-72
2022/08/26 10:32:28;;;;;;;17.20;9.18;;;;;;;31.99;69.73;97824.59;4892168;29;20413;-72
2022/08/26 10:35:14;;;;;;;18.35;8.30;;;;;;;32.32;67.77;97831.31;4909138;29;20044;-72
2022/08/26 10:38:09;;;;;;;14.50;7.78;;;;;;;32.41;68.12;97820.72;4909962;29;20516;-72
2022/08/26 10:41:04;;;;;;;11.48;7.75;;;;;;;32.86;66.87;97813.19;4909241;29;20068;-72
2022/08/26 10:44:05;;;;;;;9.05;7.28;;;;;;;33.16;66.32;97807.50;4909527;29;20046;-72
2022/08/26 10:46:55;;;;;;;11.98;7.70;;;;;;;32.76;67.71;97813.91;4893430;29;20059;-72
2022/08/26 10:49:47;;;;;;;14.05;8.48;;;;;;;32.31;69.59;97819.44;4909546;29;20043;-73
2022/08/26 10:52:41;;;;;;;14.93;7.85;;;;;;;32.66;67.79;97809.09;4908324;29;20071;-72
2022/08/26 10:55:45;;;;;;;14.82;9.95;;;;;;;32.58;67.84;97805.44;4908895;29;20420;-73
2022/08/26 10:58:37;;;;;;;13.45;8.27;;;;;;;33.01;68.41;97805.78;4892759;29;20064;-71
2022/08/26 11:01:48;;;;;;;15.55;9.35;;;;;;;32.95;68.08;97813.69;4873651;29;20052;-73
2022/08/26 11:04:35;;;;;;;12.52;9.43;;;;;;;33.09;66.63;97806.63;4890056;29;20059;-72
2022/08/26 11:07:54;;;;;;;17.92;9.23;;;;;;;33.29;66.89;97808.00;4890533;29;20080;-73
2022/08/26 11:10:54;;;;;;;18.73;10.98;;;;;;;33.01;67.92;97816.09;4901713;29;20131;-72
2022/08/26 11:14:05;;;;;;;16.83;9.73;;;;;;;33.13;66.81;97816.63;4909042;29;20115;-73
2022/08/26 11:16:53;;;;;;;14.07;9.07;;;;;;;33.34;66.46;97818.75;4910449;29;20059;-72
2022/08/26 11:19:44;;;;;;;19.27;9.60;;;;;;;33.29;66.63;97813.56;4913268;29;20135;-73
2022/08/26 11:22:43;;;;;;;12.20;8.77;;;;;;;33.62;66.26;97819.31;4899322;29;20055;-73
2022/08/26 11:25:32;;;;;;;15.60;9.98;;;;;;;33.30;65.92;97820.69;4917506;29;20111;-72
2022/08/26 11:28:38;;;;;;;13.70;8.57;;;;;;;33.52;65.16;97818.84;4916287;29;20048;-71
2022/08/26 11:31:33;;;;;;;16.45;8.77;;;;;;;33.57;65.95;97806.53;4896333;29;20060;-73
2022/08/26 11:35:03;;;;;;;17.10;9.57;;;;;;;33.51;64.70;97802.53;4856979;29;20049;-73
2022/08/26 11:38:21;;;;;;;9.57;8.10;;;;;;;33.58;65.60;97796.25;4875176;29;20172;-72
2022/08/26 11:41:28;;;;;;;13.95;8.48;;;;;;;33.60;66.15;97807.78;4874522;29;20073;-72
2022/08/26 11:44:16;;;;;;;12.82;9.15;;;;;;;33.17;65.85;97797.16;4874734;29;20056;-71
2022/08/26 11:47:09;;;;;;;11.07;8.63;;;;;;;33.02;65.85;97793.50;4887811;29;20048;-72
2022/08/26 11:50:06;;;;;;;17.27;8.75;;;;;;;33.28;66.47;97786.91;4892531;29;20058;-74
2022/08/26 11:53:04;;;;;;;13.77;7.88;;;;;;;33.28;66.54;97778.56;4874128;29;20515;-73
2022/08/26 11:55:50;;;;;;;15.55;8.45;;;;;;;33.14;65.73;97775.72;4873877;29;20048;-73
2022/08/26 11:58:39;;;;;;;13.48;7.78;;;;;;;33.25;66.23;97779.38;4874672;29;20564;-73
2022/08/26 12:01:28;;;;;;;13.98;7.97;;;;;;;33.52;67.08;97773.56;4873350;29;20064;-73
2022/08/26 12:04:32;;;;;;;11.30;7.10;;;;;;;33.57;65.06;97775.16;4874359;29;20087;-73
2022/08/26 12:07:16;;;;;;;14.65;8.43;;;;;;;33.67;64.71;97761.34;4893022;29;20052;-72
2022/08/26 12:10:09;;;;;;;16.10;8.55;;;;;;;33.44;62.89;97758.81;4892345;29;20044;-72
2022/08/26 12:12:56;;;;;;;26.48;9.02;;;;;;;33.39;61.73;97764.75;4892873;29;20488;-73
2022/08/26 12:15:45;;;;;;;19.92;8.95;;;;;;;33.57;61.56;97767.59;4893030;29;20417;-72
2022/08/26 12:18:31;;;;;;;15.07;7.93;;;;;;;33.45;60.37;97757.63;4892754;29;20472;-72
2022/08/26 12:21:33;;;;;;;13.63;7.60;;;;;;;33.41;61.30;97756.00;4889164;29;20118;-72
2022/08/26 12:24:28;;;;;;;15.98;7.18;;;;;;;33.61;60.91;97760.09;4874296;29;20072;-71
2022/08/26 12:27:28;;;;;;;15.55;8.50;;;;;;;33.45;61.89;97773.50;4876113;29;20064;-71
2022/08/26 12:30:28;;;;;;;19.52;8.48;;;;;;;33.82;61.49;97769.72;4873994;29;20178;-71
2022/08/26 12:33:20;;;;;;;16.05;8.73;;;;;;;33.94;61.96;97761.03;4884124;29;20113;-70
2022/08/26 12:36:16;;;;;;;20.13;10.23;;;;;;;33.64;62.48;97767.66;4894762;29;20062;-71
2022/08/26 12:38:52;;;;;;;23.83;12.48;;;;;;;33.70;62.05;97776.44;4911908;29;20111;-73
2022/08/26 12:41:55;;;;;;;20.83;13.35;;;;;;;33.67;61.98;97788.34;4910796;29;20075;-75
2022/08/26 12:44:45;;;;;;;23.73;13.52;;;;;;;33.40;61.72;97802.50;4894596;29;20139;-74
2022/08/26 12:47:42;;;;;;;20.42;13.02;;;;;;;33.73;61.20;97798.72;4894488;29;20139;-71
2022/08/26 12:50:30;;;;;;;16.73;11.85;;;;;;;33.48;61.98;97809.69;4892117;29;20069;-70
2022/08/26 12:53:31;;;;;;;21.23;12.00;;;;;;;33.67;61.62;97814.19;4891964;29;20052;-71
2022/08/26 12:56:31;;;;;;;19.20;12.68;;;;;;;33.59;61.54;97822.84;4891927;29;20072;-69
2022/08/26 12:59:25;;;;;;;18.83;12.40;;;;;;;33.69;60.58;97806.25;4872863;29;20148;-71
2022/08/26 13:02:14;;;;;;;19.95;12.45;;;;;;;33.64;60.83;97812.19;4883613;29;20052;-70
2022/08/26 13:05:09;;;;;;;19.25;13.23;;;;;;;33.62;60.48;97813.75;4911149;29;20107;-71
2022/08/26 13:08:11;;;;;;;16.88;13.75;;;;;;;33.46;59.93;97808.47;4894495;29;20051;-70
2022/08/26 13:11:07;;;;;;;15.80;13.85;;;;;;;33.50;60.33;97809.31;4889037;29;20067;-70
2022/08/26 13:14:07;;;;;;;17.30;14.40;;;;;;;33.61;60.10;97810.16;4890193;29;20062;-71
2022/08/26 13:16:50;;;;;;;18.95;13.73;;;;;;;33.58;60.29;97805.38;4891368;29;20143;-72
2022/08/26 13:19:39;;;;;;;25.63;15.18;;;;;;;33.62;60.78;97797.03;4891329;29;20045;-72